sensor_id;sensor_type;location;lat;lon;timestamp;P1;durP1;ratioP1;P2;durP2;ratioP2
7669;SDS011;3877;42.562;27.636;2023-06-10T00:01:16;6.55;;;4.32;;
7669;SDS011;3877;42.562;27.636;2023-06-10T00:03:44;8.65;;;4.50;;
7669;SDS011;3877;42.562;27.636;2023-06-10T00:06:10;9.38;;;5.00;;
7669;SDS011;3877;42.562;27.636;2023-06-10T00:08:37;9.52;;;5.22;;
7669;SDS011;3877;42.562;27.636;2023-06-10T00:11:05;10.65;;;6.32;;
7669;SDS011;3877;42.562;27.636;2023-06-10T00:13:32;11.32;;;6.05;;
7669;SDS011;3877;42.562;27.636;2023-06-10T00:15:59;11.38;;;6.35;;
7669;SDS011;3877;42.562;27.636;2023-06-10T00:18:27;12.02;;;6.18;;
7669;SDS011;3877;42.562;27.636;2023-06-10T00:20:56;12.80;;;6.35;;
7669;SDS011;3877;42.562;27.636;2023-06-10T00:23:28;8.07;;;6.03;;
7669;SDS011;3877;42.562;27.636;2023-06-10T00:25:56;12.73;;;6.35;;
7669;SDS011;3877;42.562;27.636;2023-06-10T00:28:23;8.85;;;5.93;;
7669;SDS011;3877;42.562;27.636;2023-06-10T00:30:50;8.57;;;5.95;;
7669;SDS011;3877;42.562;27.636;2023-06-10T00:33:16;8.23;;;6.10;;
7669;SDS011;3877;42.562;27.636;2023-06-10T00:35:45;10.02;;;6.10;;
7669;SDS011;3877;42.562;27.636;2023-06-10T00:38:12;16.13;;;6.47;;
7669;SDS011;3877;42.562;27.636;2023-06-10T00:40:39;17.45;;;6.40;;
7669;SDS011;3877;42.562;27.636;2023-06-10T00:43:06;11.60;;;6.00;;
7669;SDS011;3877;42.562;27.636;2023-06-10T00:45:33;7.80;;;6.30;;
7669;SDS011;3877;42.562;27.636;2023-06-10T00:48:00;8.18;;;6.30;;
7669;SDS011;3877;42.562;27.636;2023-06-10T00:50:27;8.65;;;6.00;;
7669;SDS011;3877;42.562;27.636;2023-06-10T00:52:56;12.50;;;6.47;;
7669;SDS011;3877;42.562;27.636;2023-06-10T00:55:23;8.88;;;5.68;;
7669;SDS011;3877;42.562;27.636;2023-06-10T00:57:50;7.55;;;6.25;;
7669;SDS011;3877;42.562;27.636;2023-06-10T01:00:17;10.70;;;5.80;;
7669;SDS011;3877;42.562;27.636;2023-06-10T01:02:44;7.95;;;5.78;;
7669;SDS011;3877;42.562;27.636;2023-06-10T01:05:11;6.20;;;5.60;;
7669;SDS011;3877;42.562;27.636;2023-06-10T01:07:40;11.50;;;5.85;;
7669;SDS011;3877;42.562;27.636;2023-06-10T01:10:15;10.35;;;5.78;;
7669;SDS011;3877;42.562;27.636;2023-06-10T01:12:43;7.93;;;5.95;;
7669;SDS011;3877;42.562;27.636;2023-06-10T01:15:13;6.55;;;5.60;;
7669;SDS011;3877;42.562;27.636;2023-06-10T01:17:53;6.05;;;5.30;;
7669;SDS011;3877;42.562;27.636;2023-06-10T01:20:20;7.70;;;6.03;;
7669;SDS011;3877;42.562;27.636;2023-06-10T01:22:49;15.02;;;6.18;;
7669;SDS011;3877;42.562;27.636;2023-06-10T01:25:16;11.07;;;6.50;;
7669;SDS011;3877;42.562;27.636;2023-06-10T01:27:43;10.82;;;6.10;;
7669;SDS011;3877;42.562;27.636;2023-06-10T01:30:14;8.02;;;6.13;;
7669;SDS011;3877;42.562;27.636;2023-06-10T01:32:43;12.83;;;6.67;;
7669;SDS011;3877;42.562;27.636;2023-06-10T01:35:11;10.63;;;6.28;;
7669;SDS011;3877;42.562;27.636;2023-06-10T01:37:38;8.00;;;5.57;;
7669;SDS011;3877;42.562;27.636;2023-06-10T01:40:07;8.07;;;6.03;;
7669;SDS011;3877;42.562;27.636;2023-06-10T01:42:35;6.45;;;5.78;;
7669;SDS011;3877;42.562;27.636;2023-06-10T01:45:02;7.03;;;6.32;;
7669;SDS011;3877;42.562;27.636;2023-06-10T01:47:29;9.95;;;6.53;;
7669;SDS011;3877;42.562;27.636;2023-06-10T01:49:55;8.23;;;6.07;;
7669;SDS011;3877;42.562;27.636;2023-06-10T01:52:22;12.13;;;6.18;;
7669;SDS011;3877;42.562;27.636;2023-06-10T01:54:49;8.35;;;5.93;;
7669;SDS011;3877;42.562;27.636;2023-06-10T01:57:17;9.23;;;5.82;;
7669;SDS011;3877;42.562;27.636;2023-06-10T01:59:44;11.82;;;6.05;;
7669;SDS011;3877;42.562;27.636;2023-06-10T02:02:11;10.85;;;6.80;;
7669;SDS011;3877;42.562;27.636;2023-06-10T02:04:38;15.43;;;6.13;;
7669;SDS011;3877;42.562;27.636;2023-06-10T02:07:05;9.55;;;6.20;;
7669;SDS011;3877;42.562;27.636;2023-06-10T02:09:32;12.10;;;7.00;;
7669;SDS011;3877;42.562;27.636;2023-06-10T02:12:01;15.20;;;6.50;;
7669;SDS011;3877;42.562;27.636;2023-06-10T02:14:29;12.50;;;6.20;;
7669;SDS011;3877;42.562;27.636;2023-06-10T02:16:56;6.78;;;5.95;;
7669;SDS011;3877;42.562;27.636;2023-06-10T02:19:23;10.98;;;6.07;;
7669;SDS011;3877;42.562;27.636;2023-06-10T02:21:50;10.40;;;6.00;;
7669;SDS011;3877;42.562;27.636;2023-06-10T02:24:17;14.15;;;8.13;;
7669;SDS011;3877;42.562;27.636;2023-06-10T02:26:44;10.07;;;7.60;;
7669;SDS011;3877;42.562;27.636;2023-06-10T02:29:13;10.43;;;7.10;;
7669;SDS011;3877;42.562;27.636;2023-06-10T02:31:41;7.57;;;6.25;;
7669;SDS011;3877;42.562;27.636;2023-06-10T02:34:08;11.30;;;8.15;;
7669;SDS011;3877;42.562;27.636;2023-06-10T02:36:35;11.48;;;7.93;;
7669;SDS011;3877;42.562;27.636;2023-06-10T02:39:02;9.85;;;7.30;;
7669;SDS011;3877;42.562;27.636;2023-06-10T02:41:29;11.85;;;7.40;;
7669;SDS011;3877;42.562;27.636;2023-06-10T02:43:56;9.93;;;6.70;;
7669;SDS011;3877;42.562;27.636;2023-06-10T02:46:23;8.15;;;5.80;;
7669;SDS011;3877;42.562;27.636;2023-06-10T02:48:51;9.63;;;5.70;;
7669;SDS011;3877;42.562;27.636;2023-06-10T02:51:18;9.45;;;7.15;;
7669;SDS011;3877;42.562;27.636;2023-06-10T02:53:46;12.35;;;6.85;;
7669;SDS011;3877;42.562;27.636;2023-06-10T02:56:15;8.52;;;6.13;;
7669;SDS011;3877;42.562;27.636;2023-06-10T02:58:42;9.07;;;6.68;;
7669;SDS011;3877;42.562;27.636;2023-06-10T03:01:09;9.60;;;6.67;;
7669;SDS011;3877;42.562;27.636;2023-06-10T03:03:36;13.02;;;6.50;;
7669;SDS011;3877;42.562;27.636;2023-06-10T03:06:07;9.10;;;6.45;;
7669;SDS011;3877;42.562;27.636;2023-06-10T03:08:35;8.45;;;6.05;;
7669;SDS011;3877;42.562;27.636;2023-06-10T03:11:02;9.35;;;6.03;;
7669;SDS011;3877;42.562;27.636;2023-06-10T03:13:29;11.90;;;4.90;;
7669;SDS011;3877;42.562;27.636;2023-06-10T03:15:56;6.05;;;4.10;;
7669;SDS011;3877;42.562;27.636;2023-06-10T03:18:25;8.27;;;4.50;;
7669;SDS011;3877;42.562;27.636;2023-06-10T03:20:52;6.90;;;4.35;;
7669;SDS011;3877;42.562;27.636;2023-06-10T03:23:20;7.93;;;4.63;;
7669;SDS011;3877;42.562;27.636;2023-06-10T03:25:48;6.88;;;4.53;;
7669;SDS011;3877;42.562;27.636;2023-06-10T03:28:15;9.18;;;5.05;;
7669;SDS011;3877;42.562;27.636;2023-06-10T03:30:41;8.88;;;4.85;;
7669;SDS011;3877;42.562;27.636;2023-06-10T03:33:08;8.80;;;4.87;;
7669;SDS011;3877;42.562;27.636;2023-06-10T03:35:35;7.95;;;4.78;;
7669;SDS011;3877;42.562;27.636;2023-06-10T03:38:02;7.22;;;4.35;;
7669;SDS011;3877;42.562;27.636;2023-06-10T03:40:30;6.10;;;4.35;;
7669;SDS011;3877;42.562;27.636;2023-06-10T03:42:57;5.43;;;4.47;;
7669;SDS011;3877;42.562;27.636;2023-06-10T03:45:24;6.28;;;4.32;;
7669;SDS011;3877;42.562;27.636;2023-06-10T03:47:53;7.57;;;4.32;;
7669;SDS011;3877;42.562;27.636;2023-06-10T03:50:23;7.37;;;5.23;;
7669;SDS011;3877;42.562;27.636;2023-06-10T03:52:50;6.93;;;4.72;;
7669;SDS011;3877;42.562;27.636;2023-06-10T03:55:16;8.57;;;4.93;;
7669;SDS011;3877;42.562;27.636;2023-06-10T03:57:45;6.60;;;4.35;;
7669;SDS011;3877;42.562;27.636;2023-06-10T04:00:12;8.48;;;4.70;;
7669;SDS011;3877;42.562;27.636;2023-06-10T04:02:39;6.90;;;5.00;;
7669;SDS011;3877;42.562;27.636;2023-06-10T04:05:10;15.80;;;6.03;;
7669;SDS011;3877;42.562;27.636;2023-06-10T04:07:37;10.85;;;5.55;;
7669;SDS011;3877;42.562;27.636;2023-06-10T04:10:06;9.88;;;5.70;;
7669;SDS011;3877;42.562;27.636;2023-06-10T04:12:33;9.00;;;5.60;;
7669;SDS011;3877;42.562;27.636;2023-06-10T04:15:01;9.27;;;5.63;;
7669;SDS011;3877;42.562;27.636;2023-06-10T04:17:28;12.45;;;6.28;;
7669;SDS011;3877;42.562;27.636;2023-06-10T04:19:55;6.90;;;5.25;;
7669;SDS011;3877;42.562;27.636;2023-06-10T04:22:23;8.15;;;5.68;;
7669;SDS011;3877;42.562;27.636;2023-06-10T04:24:50;10.07;;;5.63;;
7669;SDS011;3877;42.562;27.636;2023-06-10T04:27:17;13.88;;;6.53;;
7669;SDS011;3877;42.562;27.636;2023-06-10T04:29:43;8.43;;;5.95;;
7669;SDS011;3877;42.562;27.636;2023-06-10T04:32:11;11.32;;;6.95;;
7669;SDS011;3877;42.562;27.636;2023-06-10T04:34:38;12.13;;;6.10;;
7669;SDS011;3877;42.562;27.636;2023-06-10T04:37:05;10.15;;;6.43;;
7669;SDS011;3877;42.562;27.636;2023-06-10T04:39:32;16.13;;;7.15;;
7669;SDS011;3877;42.562;27.636;2023-06-10T04:41:59;9.43;;;6.25;;
7669;SDS011;3877;42.562;27.636;2023-06-10T04:44:26;9.55;;;6.85;;
7669;SDS011;3877;42.562;27.636;2023-06-10T04:46:54;6.47;;;4.78;;
7669;SDS011;3877;42.562;27.636;2023-06-10T04:49:22;8.88;;;5.35;;
7669;SDS011;3877;42.562;27.636;2023-06-10T04:51:49;6.45;;;5.72;;
7669;SDS011;3877;42.562;27.636;2023-06-10T04:54:16;7.28;;;5.78;;
7669;SDS011;3877;42.562;27.636;2023-06-10T04:56:43;8.32;;;5.40;;
7669;SDS011;3877;42.562;27.636;2023-06-10T04:59:10;7.05;;;5.10;;
7669;SDS011;3877;42.562;27.636;2023-06-10T05:01:37;7.85;;;5.47;;
7669;SDS011;3877;42.562;27.636;2023-06-10T05:04:04;6.63;;;5.00;;
7669;SDS011;3877;42.562;27.636;2023-06-10T05:06:32;7.55;;;5.03;;
7669;SDS011;3877;42.562;27.636;2023-06-10T05:08:59;7.45;;;5.25;;
7669;SDS011;3877;42.562;27.636;2023-06-10T05:11:26;5.95;;;4.85;;
7669;SDS011;3877;42.562;27.636;2023-06-10T05:13:53;7.75;;;4.72;;
7669;SDS011;3877;42.562;27.636;2023-06-10T05:16:20;8.73;;;5.30;;
7669;SDS011;3877;42.562;27.636;2023-06-10T05:18:47;5.90;;;4.90;;
7669;SDS011;3877;42.562;27.636;2023-06-10T05:21:16;7.10;;;4.72;;
7669;SDS011;3877;42.562;27.636;2023-06-10T05:23:44;14.65;;;5.15;;
7669;SDS011;3877;42.562;27.636;2023-06-10T05:26:11;14.32;;;5.10;;
7669;SDS011;3877;42.562;27.636;2023-06-10T05:28:38;5.40;;;4.57;;
7669;SDS011;3877;42.562;27.636;2023-06-10T05:31:04;10.82;;;5.72;;
7669;SDS011;3877;42.562;27.636;2023-06-10T05:33:31;11.98;;;5.38;;
7669;SDS011;3877;42.562;27.636;2023-06-10T05:35:58;20.65;;;8.18;;
7669;SDS011;3877;42.562;27.636;2023-06-10T05:38:25;7.55;;;6.28;;
7669;SDS011;3877;42.562;27.636;2023-06-10T05:40:53;6.35;;;5.72;;
7669;SDS011;3877;42.562;27.636;2023-06-10T05:43:22;10.10;;;6.10;;
7669;SDS011;3877;42.562;27.636;2023-06-10T05:45:49;15.07;;;6.53;;
7669;SDS011;3877;42.562;27.636;2023-06-10T05:48:15;10.38;;;7.13;;
7669;SDS011;3877;42.562;27.636;2023-06-10T05:50:42;7.55;;;6.07;;
7669;SDS011;3877;42.562;27.636;2023-06-10T05:53:13;12.55;;;7.05;;
7669;SDS011;3877;42.562;27.636;2023-06-10T05:55:40;10.05;;;6.60;;
7669;SDS011;3877;42.562;27.636;2023-06-10T05:58:09;9.70;;;6.55;;
7669;SDS011;3877;42.562;27.636;2023-06-10T06:00:37;7.97;;;5.88;;
7669;SDS011;3877;42.562;27.636;2023-06-10T06:03:05;13.77;;;6.45;;
7669;SDS011;3877;42.562;27.636;2023-06-10T06:05:32;6.50;;;4.70;;
7669;SDS011;3877;42.562;27.636;2023-06-10T06:08:00;6.50;;;5.10;;
7669;SDS011;3877;42.562;27.636;2023-06-10T06:10:27;7.70;;;4.90;;
7669;SDS011;3877;42.562;27.636;2023-06-10T06:12:54;9.43;;;5.13;;
7669;SDS011;3877;42.562;27.636;2023-06-10T06:15:23;11.65;;;4.95;;
7669;SDS011;3877;42.562;27.636;2023-06-10T06:17:49;6.97;;;5.28;;
7669;SDS011;3877;42.562;27.636;2023-06-10T06:20:17;6.82;;;4.90;;
7669;SDS011;3877;42.562;27.636;2023-06-10T06:22:44;8.35;;;5.15;;
7669;SDS011;3877;42.562;27.636;2023-06-10T06:25:11;9.02;;;4.95;;
7669;SDS011;3877;42.562;27.636;2023-06-10T06:27:38;6.93;;;4.97;;
7669;SDS011;3877;42.562;27.636;2023-06-10T06:30:06;15.88;;;5.78;;
7669;SDS011;3877;42.562;27.636;2023-06-10T06:32:34;10.35;;;5.28;;
7669;SDS011;3877;42.562;27.636;2023-06-10T06:35:01;7.28;;;5.43;;
7669;SDS011;3877;42.562;27.636;2023-06-10T06:37:29;14.68;;;5.63;;
7669;SDS011;3877;42.562;27.636;2023-06-10T06:39:57;9.77;;;5.47;;
7669;SDS011;3877;42.562;27.636;2023-06-10T06:42:24;8.38;;;5.93;;
7669;SDS011;3877;42.562;27.636;2023-06-10T06:44:51;10.75;;;7.07;;
7669;SDS011;3877;42.562;27.636;2023-06-10T06:47:18;13.32;;;6.88;;
7669;SDS011;3877;42.562;27.636;2023-06-10T06:49:46;12.57;;;6.72;;
7669;SDS011;3877;42.562;27.636;2023-06-10T06:52:15;10.55;;;6.57;;
7669;SDS011;3877;42.562;27.636;2023-06-10T06:54:41;7.50;;;6.70;;
7669;SDS011;3877;42.562;27.636;2023-06-10T06:57:08;15.82;;;7.00;;
7669;SDS011;3877;42.562;27.636;2023-06-10T06:59:36;15.70;;;7.03;;
7669;SDS011;3877;42.562;27.636;2023-06-10T07:02:03;11.48;;;7.22;;
7669;SDS011;3877;42.562;27.636;2023-06-10T07:04:30;8.05;;;5.75;;
7669;SDS011;3877;42.562;27.636;2023-06-10T07:06:58;9.05;;;6.00;;
7669;SDS011;3877;42.562;27.636;2023-06-10T07:09:25;8.27;;;6.10;;
7669;SDS011;3877;42.562;27.636;2023-06-10T07:11:53;8.45;;;6.07;;
7669;SDS011;3877;42.562;27.636;2023-06-10T07:14:20;9.38;;;5.30;;
7669;SDS011;3877;42.562;27.636;2023-06-10T07:16:47;8.93;;;5.28;;
7669;SDS011;3877;42.562;27.636;2023-06-10T07:19:14;10.82;;;5.25;;
7669;SDS011;3877;42.562;27.636;2023-06-10T07:21:41;10.13;;;5.63;;
7669;SDS011;3877;42.562;27.636;2023-06-10T07:24:10;12.18;;;4.97;;
7669;SDS011;3877;42.562;27.636;2023-06-10T07:26:36;11.05;;;4.93;;
7669;SDS011;3877;42.562;27.636;2023-06-10T07:29:03;8.25;;;4.93;;
7669;SDS011;3877;42.562;27.636;2023-06-10T07:31:30;6.60;;;4.70;;
7669;SDS011;3877;42.562;27.636;2023-06-10T07:33:57;9.63;;;4.80;;
7669;SDS011;3877;42.562;27.636;2023-06-10T07:36:25;9.57;;;4.75;;
7669;SDS011;3877;42.562;27.636;2023-06-10T07:38:53;5.10;;;4.32;;
7669;SDS011;3877;42.562;27.636;2023-06-10T07:41:22;12.43;;;4.70;;
7669;SDS011;3877;42.562;27.636;2023-06-10T07:43:50;5.13;;;4.13;;
7669;SDS011;3877;42.562;27.636;2023-06-10T07:46:19;9.20;;;4.07;;
7669;SDS011;3877;42.562;27.636;2023-06-10T07:48:46;5.65;;;3.67;;
7669;SDS011;3877;42.562;27.636;2023-06-10T07:51:13;12.25;;;4.13;;
7669;SDS011;3877;42.562;27.636;2023-06-10T07:53:41;9.35;;;3.70;;
7669;SDS011;3877;42.562;27.636;2023-06-10T07:56:07;11.15;;;3.95;;
7669;SDS011;3877;42.562;27.636;2023-06-10T07:58:36;10.02;;;3.75;;
7669;SDS011;3877;42.562;27.636;2023-06-10T08:01:02;6.82;;;3.50;;
7669;SDS011;3877;42.562;27.636;2023-06-10T08:03:29;4.93;;;3.70;;
7669;SDS011;3877;42.562;27.636;2023-06-10T08:05:56;6.20;;;3.33;;
7669;SDS011;3877;42.562;27.636;2023-06-10T08:08:23;6.28;;;3.25;;
7669;SDS011;3877;42.562;27.636;2023-06-10T08:10:50;10.93;;;3.13;;
7669;SDS011;3877;42.562;27.636;2023-06-10T08:13:17;7.80;;;3.05;;
7669;SDS011;3877;42.562;27.636;2023-06-10T08:15:45;4.85;;;3.40;;
7669;SDS011;3877;42.562;27.636;2023-06-10T08:18:13;5.50;;;2.88;;
7669;SDS011;3877;42.562;27.636;2023-06-10T08:20:39;8.10;;;3.20;;
7669;SDS011;3877;42.562;27.636;2023-06-10T08:23:06;8.98;;;3.42;;
7669;SDS011;3877;42.562;27.636;2023-06-10T08:25:33;4.22;;;3.45;;
7669;SDS011;3877;42.562;27.636;2023-06-10T08:28:00;10.68;;;3.50;;
7669;SDS011;3877;42.562;27.636;2023-06-10T08:30:26;8.13;;;3.60;;
7669;SDS011;3877;42.562;27.636;2023-06-10T08:32:55;8.68;;;3.20;;
7669;SDS011;3877;42.562;27.636;2023-06-10T08:35:21;7.65;;;3.20;;
7669;SDS011;3877;42.562;27.636;2023-06-10T08:37:49;3.58;;;2.88;;
7669;SDS011;3877;42.562;27.636;2023-06-10T08:40:15;5.80;;;3.38;;
7669;SDS011;3877;42.562;27.636;2023-06-10T08:42:43;5.60;;;3.72;;
7669;SDS011;3877;42.562;27.636;2023-06-10T08:45:12;7.65;;;3.72;;
7669;SDS011;3877;42.562;27.636;2023-06-10T08:47:42;7.20;;;3.47;;
7669;SDS011;3877;42.562;27.636;2023-06-10T08:50:12;4.63;;;3.05;;
7669;SDS011;3877;42.562;27.636;2023-06-10T08:52:40;5.60;;;3.20;;
7669;SDS011;3877;42.562;27.636;2023-06-10T08:55:09;5.18;;;3.22;;
7669;SDS011;3877;42.562;27.636;2023-06-10T08:57:37;11.00;;;3.60;;
7669;SDS011;3877;42.562;27.636;2023-06-10T09:00:04;4.95;;;3.00;;
7669;SDS011;3877;42.562;27.636;2023-06-10T09:02:31;5.35;;;3.22;;
7669;SDS011;3877;42.562;27.636;2023-06-10T09:05:00;4.45;;;3.45;;
7669;SDS011;3877;42.562;27.636;2023-06-10T09:07:28;13.68;;;3.42;;
7669;SDS011;3877;42.562;27.636;2023-06-10T09:09:56;3.75;;;3.17;;
7669;SDS011;3877;42.562;27.636;2023-06-10T09:12:23;7.93;;;3.20;;
7669;SDS011;3877;42.562;27.636;2023-06-10T09:14:50;8.82;;;3.80;;
7669;SDS011;3877;42.562;27.636;2023-06-10T09:17:17;6.85;;;3.22;;
7669;SDS011;3877;42.562;27.636;2023-06-10T09:19:44;5.93;;;3.58;;
7669;SDS011;3877;42.562;27.636;2023-06-10T09:22:11;5.47;;;3.20;;
7669;SDS011;3877;42.562;27.636;2023-06-10T09:24:40;5.28;;;3.10;;
7669;SDS011;3877;42.562;27.636;2023-06-10T09:27:07;3.60;;;2.92;;
7669;SDS011;3877;42.562;27.636;2023-06-10T09:29:44;5.72;;;3.10;;
7669;SDS011;3877;42.562;27.636;2023-06-10T09:32:11;7.75;;;3.60;;
7669;SDS011;3877;42.562;27.636;2023-06-10T09:34:38;7.90;;;3.38;;
7669;SDS011;3877;42.562;27.636;2023-06-10T09:37:06;8.15;;;3.40;;
7669;SDS011;3877;42.562;27.636;2023-06-10T09:39:33;4.97;;;3.28;;
7669;SDS011;3877;42.562;27.636;2023-06-10T09:42:02;5.70;;;3.28;;
7669;SDS011;3877;42.562;27.636;2023-06-10T09:44:37;4.72;;;3.17;;
7669;SDS011;3877;42.562;27.636;2023-06-10T09:47:05;6.15;;;3.40;;
7669;SDS011;3877;42.562;27.636;2023-06-10T09:49:32;9.55;;;3.05;;
7669;SDS011;3877;42.562;27.636;2023-06-10T09:51:59;5.30;;;3.45;;
7669;SDS011;3877;42.562;27.636;2023-06-10T09:54:26;5.70;;;2.83;;
7669;SDS011;3877;42.562;27.636;2023-06-10T09:56:58;8.48;;;4.35;;
7669;SDS011;3877;42.562;27.636;2023-06-10T09:59:29;3.97;;;3.10;;
7669;SDS011;3877;42.562;27.636;2023-06-10T10:01:57;4.90;;;3.35;;
7669;SDS011;3877;42.562;27.636;2023-06-10T10:04:23;5.97;;;3.28;;
7669;SDS011;3877;42.562;27.636;2023-06-10T10:06:51;5.75;;;3.28;;
7669;SDS011;3877;42.562;27.636;2023-06-10T10:09:17;4.13;;;3.17;;
7669;SDS011;3877;42.562;27.636;2023-06-10T10:11:44;8.40;;;3.13;;
7669;SDS011;3877;42.562;27.636;2023-06-10T10:14:12;8.75;;;3.33;;
7669;SDS011;3877;42.562;27.636;2023-06-10T10:16:41;4.90;;;3.10;;
7669;SDS011;3877;42.562;27.636;2023-06-10T10:19:10;3.95;;;2.80;;
7669;SDS011;3877;42.562;27.636;2023-06-10T10:21:40;8.05;;;3.20;;
7669;SDS011;3877;42.562;27.636;2023-06-10T10:24:12;5.85;;;3.00;;
7669;SDS011;3877;42.562;27.636;2023-06-10T10:26:42;7.68;;;3.10;;
7669;SDS011;3877;42.562;27.636;2023-06-10T10:29:10;4.80;;;3.25;;
7669;SDS011;3877;42.562;27.636;2023-06-10T10:31:37;4.05;;;2.90;;
7669;SDS011;3877;42.562;27.636;2023-06-10T10:34:09;7.25;;;3.20;;
7669;SDS011;3877;42.562;27.636;2023-06-10T10:36:37;5.97;;;2.80;;
7669;SDS011;3877;42.562;27.636;2023-06-10T10:39:04;6.97;;;3.33;;
7669;SDS011;3877;42.562;27.636;2023-06-10T10:41:31;7.18;;;3.13;;
7669;SDS011;3877;42.562;27.636;2023-06-10T10:43:58;8.38;;;3.15;;
7669;SDS011;3877;42.562;27.636;2023-06-10T10:46:26;6.65;;;3.50;;
7669;SDS011;3877;42.562;27.636;2023-06-10T10:48:53;4.05;;;2.83;;
7669;SDS011;3877;42.562;27.636;2023-06-10T10:51:22;7.70;;;3.25;;
7669;SDS011;3877;42.562;27.636;2023-06-10T10:56:30;8.15;;;3.00;;
7669;SDS011;3877;42.562;27.636;2023-06-10T10:59:04;4.68;;;2.90;;
7669;SDS011;3877;42.562;27.636;2023-06-10T11:01:39;4.78;;;2.95;;
7669;SDS011;3877;42.562;27.636;2023-06-10T11:04:06;5.63;;;3.28;;
7669;SDS011;3877;42.562;27.636;2023-06-10T11:06:34;5.45;;;3.13;;
7669;SDS011;3877;42.562;27.636;2023-06-10T11:09:02;6.50;;;3.28;;
7669;SDS011;3877;42.562;27.636;2023-06-10T11:11:49;4.68;;;2.63;;
7669;SDS011;3877;42.562;27.636;2023-06-10T11:14:15;6.18;;;2.92;;
7669;SDS011;3877;42.562;27.636;2023-06-10T11:16:53;4.05;;;2.97;;
7669;SDS011;3877;42.562;27.636;2023-06-10T11:19:32;7.28;;;2.88;;
7669;SDS011;3877;42.562;27.636;2023-06-10T11:22:01;6.32;;;2.92;;
7669;SDS011;3877;42.562;27.636;2023-06-10T11:24:28;4.78;;;2.85;;
7669;SDS011;3877;42.562;27.636;2023-06-10T11:27:02;7.30;;;3.35;;
7669;SDS011;3877;42.562;27.636;2023-06-10T11:29:47;6.20;;;3.30;;
7669;SDS011;3877;42.562;27.636;2023-06-10T11:32:21;4.35;;;2.70;;
7669;SDS011;3877;42.562;27.636;2023-06-10T11:34:51;4.20;;;2.95;;
7669;SDS011;3877;42.562;27.636;2023-06-10T11:37:20;5.40;;;3.25;;
7669;SDS011;3877;42.562;27.636;2023-06-10T11:39:47;4.68;;;2.58;;
7669;SDS011;3877;42.562;27.636;2023-06-10T11:42:14;12.20;;;4.60;;
7669;SDS011;3877;42.562;27.636;2023-06-10T11:44:47;6.78;;;3.03;;
7669;SDS011;3877;42.562;27.636;2023-06-10T11:47:14;4.97;;;2.78;;
7669;SDS011;3877;42.562;27.636;2023-06-10T11:49:41;7.85;;;2.90;;
7669;SDS011;3877;42.562;27.636;2023-06-10T11:52:08;8.27;;;2.72;;
7669;SDS011;3877;42.562;27.636;2023-06-10T11:54:37;3.53;;;2.80;;
7669;SDS011;3877;42.562;27.636;2023-06-10T11:57:04;4.72;;;2.97;;
7669;SDS011;3877;42.562;27.636;2023-06-10T11:59:33;5.15;;;3.20;;
7669;SDS011;3877;42.562;27.636;2023-06-10T12:02:00;6.10;;;2.90;;
7669;SDS011;3877;42.562;27.636;2023-06-10T12:04:27;5.65;;;2.90;;
7669;SDS011;3877;42.562;27.636;2023-06-10T12:06:55;4.15;;;2.67;;
7669;SDS011;3877;42.562;27.636;2023-06-10T12:09:22;7.95;;;3.17;;
7669;SDS011;3877;42.562;27.636;2023-06-10T12:11:51;9.50;;;3.22;;
7669;SDS011;3877;42.562;27.636;2023-06-10T12:17:04;7.72;;;2.88;;
7669;SDS011;3877;42.562;27.636;2023-06-10T12:19:31;5.28;;;2.95;;
7669;SDS011;3877;42.562;27.636;2023-06-10T12:22:00;8.00;;;2.80;;
7669;SDS011;3877;42.562;27.636;2023-06-10T12:24:27;6.65;;;2.90;;
7669;SDS011;3877;42.562;27.636;2023-06-10T12:26:55;3.28;;;2.38;;
7669;SDS011;3877;42.562;27.636;2023-06-10T12:29:22;5.72;;;2.80;;
7669;SDS011;3877;42.562;27.636;2023-06-10T12:31:56;4.15;;;2.70;;
7669;SDS011;3877;42.562;27.636;2023-06-10T12:34:31;5.68;;;2.80;;
7669;SDS011;3877;42.562;27.636;2023-06-10T12:36:58;6.63;;;2.70;;
7669;SDS011;3877;42.562;27.636;2023-06-10T12:39:25;5.25;;;2.78;;
7669;SDS011;3877;42.562;27.636;2023-06-10T12:41:52;6.95;;;2.78;;
7669;SDS011;3877;42.562;27.636;2023-06-10T12:44:23;7.78;;;3.10;;
7669;SDS011;3877;42.562;27.636;2023-06-10T12:46:54;8.02;;;3.40;;
7669;SDS011;3877;42.562;27.636;2023-06-10T12:49:21;5.80;;;2.75;;
7669;SDS011;3877;42.562;27.636;2023-06-10T12:51:48;5.03;;;2.90;;
7669;SDS011;3877;42.562;27.636;2023-06-10T12:54:15;4.38;;;2.80;;
7669;SDS011;3877;42.562;27.636;2023-06-10T12:56:41;5.28;;;2.95;;
7669;SDS011;3877;42.562;27.636;2023-06-10T12:59:08;5.65;;;2.42;;
7669;SDS011;3877;42.562;27.636;2023-06-10T13:01:37;7.55;;;2.80;;
7669;SDS011;3877;42.562;27.636;2023-06-10T13:04:04;5.88;;;3.03;;
7669;SDS011;3877;42.562;27.636;2023-06-10T13:06:31;4.10;;;3.08;;
7669;SDS011;3877;42.562;27.636;2023-06-10T13:09:01;4.55;;;2.80;;
7669;SDS011;3877;42.562;27.636;2023-06-10T13:11:28;5.38;;;2.72;;
7669;SDS011;3877;42.562;27.636;2023-06-10T13:13:55;9.13;;;3.10;;
7669;SDS011;3877;42.562;27.636;2023-06-10T13:16:22;5.45;;;2.70;;
7669;SDS011;3877;42.562;27.636;2023-06-10T13:18:50;8.73;;;3.28;;
7669;SDS011;3877;42.562;27.636;2023-06-10T13:21:17;8.70;;;3.25;;
7669;SDS011;3877;42.562;27.636;2023-06-10T13:23:44;6.70;;;3.20;;
7669;SDS011;3877;42.562;27.636;2023-06-10T13:26:11;6.07;;;3.00;;
7669;SDS011;3877;42.562;27.636;2023-06-10T13:28:38;19.60;;;4.85;;
7669;SDS011;3877;42.562;27.636;2023-06-10T13:31:05;6.40;;;2.47;;
7669;SDS011;3877;42.562;27.636;2023-06-10T13:33:32;4.60;;;2.50;;
7669;SDS011;3877;42.562;27.636;2023-06-10T13:36:00;3.40;;;2.70;;
7669;SDS011;3877;42.562;27.636;2023-06-10T13:38:27;13.18;;;3.90;;
7669;SDS011;3877;42.562;27.636;2023-06-10T13:40:54;6.10;;;3.20;;
7669;SDS011;3877;42.562;27.636;2023-06-10T13:43:21;6.15;;;3.00;;
7669;SDS011;3877;42.562;27.636;2023-06-10T13:45:48;7.30;;;3.30;;
7669;SDS011;3877;42.562;27.636;2023-06-10T13:48:15;8.02;;;3.55;;
7669;SDS011;3877;42.562;27.636;2023-06-10T13:50:41;10.35;;;3.20;;
7669;SDS011;3877;42.562;27.636;2023-06-10T13:53:12;5.90;;;3.10;;
7669;SDS011;3877;42.562;27.636;2023-06-10T13:55:39;4.32;;;3.40;;
7669;SDS011;3877;42.562;27.636;2023-06-10T13:58:06;9.43;;;3.60;;
7669;SDS011;3877;42.562;27.636;2023-06-10T14:00:32;8.52;;;3.55;;
7669;SDS011;3877;42.562;27.636;2023-06-10T14:02:59;5.68;;;3.42;;
7669;SDS011;3877;42.562;27.636;2023-06-10T14:05:26;4.70;;;2.95;;
7669;SDS011;3877;42.562;27.636;2023-06-10T14:07:53;8.15;;;3.47;;
7669;SDS011;3877;42.562;27.636;2023-06-10T14:10:21;9.70;;;2.95;;
7669;SDS011;3877;42.562;27.636;2023-06-10T14:12:48;7.82;;;3.60;;
7669;SDS011;3877;42.562;27.636;2023-06-10T14:15:15;7.22;;;3.17;;
7669;SDS011;3877;42.562;27.636;2023-06-10T14:17:42;5.13;;;3.28;;
7669;SDS011;3877;42.562;27.636;2023-06-10T14:20:09;8.30;;;3.22;;
7669;SDS011;3877;42.562;27.636;2023-06-10T14:22:36;6.13;;;3.30;;
7669;SDS011;3877;42.562;27.636;2023-06-10T14:25:03;6.13;;;3.40;;
7669;SDS011;3877;42.562;27.636;2023-06-10T14:27:32;6.85;;;3.33;;
7669;SDS011;3877;42.562;27.636;2023-06-10T14:29:58;4.35;;;3.33;;
7669;SDS011;3877;42.562;27.636;2023-06-10T14:32:25;7.18;;;3.70;;
7669;SDS011;3877;42.562;27.636;2023-06-10T14:34:52;5.20;;;3.60;;
7669;SDS011;3877;42.562;27.636;2023-06-10T14:37:19;6.07;;;3.22;;
7669;SDS011;3877;42.562;27.636;2023-06-10T14:39:46;9.18;;;3.55;;
7669;SDS011;3877;42.562;27.636;2023-06-10T14:42:12;5.65;;;3.10;;
7669;SDS011;3877;42.562;27.636;2023-06-10T14:44:40;7.03;;;3.35;;
7669;SDS011;3877;42.562;27.636;2023-06-10T14:47:07;5.00;;;3.13;;
7669;SDS011;3877;42.562;27.636;2023-06-10T14:49:34;7.25;;;3.33;;
7669;SDS011;3877;42.562;27.636;2023-06-10T14:52:01;6.70;;;3.15;;
7669;SDS011;3877;42.562;27.636;2023-06-10T14:54:28;11.35;;;3.65;;
7669;SDS011;3877;42.562;27.636;2023-06-10T14:56:55;7.75;;;3.15;;
7669;SDS011;3877;42.562;27.636;2023-06-10T14:59:22;4.80;;;3.10;;
7669;SDS011;3877;42.562;27.636;2023-06-10T15:01:50;5.70;;;3.25;;
7669;SDS011;3877;42.562;27.636;2023-06-10T15:04:17;8.30;;;3.30;;
7669;SDS011;3877;42.562;27.636;2023-06-10T15:06:43;7.28;;;2.70;;